sensor_id;sensor_type;location;lat;lon;timestamp;P1;durP1;ratioP1;P2;durP2;ratioP2
71916;SDS011;59793;46.506;6.674;2023-04-24T00:00:03;0.50;;;0.40;;
71916;SDS011;59793;46.506;6.674;2023-04-24T00:02:37;1.13;;;0.70;;
71916;SDS011;59793;46.506;6.674;2023-04-24T00:05:04;0.60;;;0.52;;
71916;SDS011;59793;46.506;6.674;2023-04-24T00:09:55;0.73;;;0.50;;
71916;SDS011;59793;46.506;6.674;2023-04-24T00:12:21;0.97;;;0.40;;
71916;SDS011;59793;46.506;6.674;2023-04-24T00:14:46;0.65;;;0.50;;
71916;SDS011;59793;46.506;6.674;2023-04-24T00:17:12;0.75;;;0.40;;
71916;SDS011;59793;46.506;6.674;2023-04-24T00:19:37;0.80;;;0.50;;
71916;SDS011;59793;46.506;6.674;2023-04-24T00:22:03;1.67;;;0.68;;
71916;SDS011;59793;46.506;6.674;2023-04-24T00:24:28;0.50;;;0.50;;
71916;SDS011;59793;46.506;6.674;2023-04-24T00:26:54;0.33;;;0.33;;
71916;SDS011;59793;46.506;6.674;2023-04-24T00:29:19;1.38;;;0.50;;
71916;SDS011;59793;46.506;6.674;2023-04-24T00:31:45;0.30;;;0.30;;
71916;SDS011;59793;46.506;6.674;2023-04-24T00:34:10;3.43;;;0.50;;
71916;SDS011;59793;46.506;6.674;2023-04-24T00:36:36;0.75;;;0.47;;
71916;SDS011;59793;46.506;6.674;2023-04-24T00:39:02;1.08;;;0.50;;
71916;SDS011;59793;46.506;6.674;2023-04-24T00:41:27;0.50;;;0.40;;
71916;SDS011;59793;46.506;6.674;2023-04-24T00:43:54;3.10;;;0.80;;
71916;SDS011;59793;46.506;6.674;2023-04-24T00:46:20;3.27;;;1.33;;
71916;SDS011;59793;46.506;6.674;2023-04-24T00:48:46;0.90;;;0.73;;
71916;SDS011;59793;46.506;6.674;2023-04-24T00:51:11;1.05;;;0.50;;
71916;SDS011;59793;46.506;6.674;2023-04-24T00:53:37;3.17;;;0.65;;
71916;SDS011;59793;46.506;6.674;2023-04-24T00:56:02;1.00;;;0.52;;
71916;SDS011;59793;46.506;6.674;2023-04-24T00:58:28;0.57;;;0.30;;
71916;SDS011;59793;46.506;6.674;2023-04-24T01:00:54;1.17;;;0.60;;
71916;SDS011;59793;46.506;6.674;2023-04-24T01:03:21;1.70;;;0.50;;
71916;SDS011;59793;46.506;6.674;2023-04-24T01:05:49;0.57;;;0.50;;
71916;SDS011;59793;46.506;6.674;2023-04-24T01:08:15;1.23;;;0.52;;
71916;SDS011;59793;46.506;6.674;2023-04-24T01:10:40;3.15;;;0.50;;
71916;SDS011;59793;46.506;6.674;2023-04-24T01:13:09;1.55;;;0.50;;
71916;SDS011;59793;46.506;6.674;2023-04-24T01:15:35;1.35;;;0.60;;
71916;SDS011;59793;46.506;6.674;2023-04-24T01:18:01;2.35;;;1.27;;
71916;SDS011;59793;46.506;6.674;2023-04-24T01:20:27;0.73;;;0.43;;
71916;SDS011;59793;46.506;6.674;2023-04-24T01:22:54;0.88;;;0.45;;
71916;SDS011;59793;46.506;6.674;2023-04-24T01:25:21;2.97;;;0.40;;
71916;SDS011;59793;46.506;6.674;2023-04-24T01:27:47;1.35;;;0.55;;
71916;SDS011;59793;46.506;6.674;2023-04-24T01:30:12;4.00;;;0.60;;
71916;SDS011;59793;46.506;6.674;2023-04-24T01:32:38;0.90;;;0.50;;
71916;SDS011;59793;46.506;6.674;2023-04-24T01:35:04;1.15;;;0.73;;
71916;SDS011;59793;46.506;6.674;2023-04-24T01:37:31;1.73;;;0.50;;
71916;SDS011;59793;46.506;6.674;2023-04-24T01:39:57;2.78;;;0.47;;
71916;SDS011;59793;46.506;6.674;2023-04-24T01:42:22;1.23;;;0.50;;
71916;SDS011;59793;46.506;6.674;2023-04-24T01:44:48;1.17;;;0.50;;
71916;SDS011;59793;46.506;6.674;2023-04-24T01:47:14;4.03;;;0.70;;
71916;SDS011;59793;46.506;6.674;2023-04-24T01:49:40;4.50;;;0.80;;
71916;SDS011;59793;46.506;6.674;2023-04-24T01:52:06;0.90;;;0.50;;
71916;SDS011;59793;46.506;6.674;2023-04-24T01:54:31;1.45;;;0.47;;
71916;SDS011;59793;46.506;6.674;2023-04-24T01:56:57;1.13;;;0.50;;
71916;SDS011;59793;46.506;6.674;2023-04-24T01:59:22;0.57;;;0.50;;
71916;SDS011;59793;46.506;6.674;2023-04-24T02:01:48;2.33;;;0.50;;
71916;SDS011;59793;46.506;6.674;2023-04-24T02:04:14;1.35;;;0.50;;
71916;SDS011;59793;46.506;6.674;2023-04-24T02:06:40;1.70;;;0.60;;
71916;SDS011;59793;46.506;6.674;2023-04-24T02:09:05;0.63;;;0.57;;
71916;SDS011;59793;46.506;6.674;2023-04-24T02:11:31;0.87;;;0.60;;
71916;SDS011;59793;46.506;6.674;2023-04-24T02:13:56;0.55;;;0.47;;
71916;SDS011;59793;46.506;6.674;2023-04-24T02:16:22;1.48;;;0.60;;
71916;SDS011;59793;46.506;6.674;2023-04-24T02:18:47;2.97;;;0.70;;
71916;SDS011;59793;46.506;6.674;2023-04-24T02:21:13;1.77;;;0.57;;
71916;SDS011;59793;46.506;6.674;2023-04-24T02:23:38;0.47;;;0.40;;
71916;SDS011;59793;46.506;6.674;2023-04-24T02:26:03;1.17;;;0.60;;
71916;SDS011;59793;46.506;6.674;2023-04-24T02:28:29;1.30;;;0.60;;
71916;SDS011;59793;46.506;6.674;2023-04-24T02:30:54;1.07;;;0.67;;
71916;SDS011;59793;46.506;6.674;2023-04-24T02:33:20;1.52;;;0.70;;
71916;SDS011;59793;46.506;6.674;2023-04-24T02:35:45;1.70;;;0.77;;
71916;SDS011;59793;46.506;6.674;2023-04-24T02:38:10;4.25;;;0.98;;
71916;SDS011;59793;46.506;6.674;2023-04-24T02:40:36;0.82;;;0.63;;
71916;SDS011;59793;46.506;6.674;2023-04-24T02:43:01;2.45;;;0.80;;
71916;SDS011;59793;46.506;6.674;2023-04-24T02:45:26;2.27;;;0.63;;
71916;SDS011;59793;46.506;6.674;2023-04-24T02:47:52;2.05;;;1.00;;
71916;SDS011;59793;46.506;6.674;2023-04-24T02:50:17;1.87;;;0.80;;
71916;SDS011;59793;46.506;6.674;2023-04-24T02:52:42;5.73;;;0.90;;
71916;SDS011;59793;46.506;6.674;2023-04-24T02:55:08;0.90;;;0.60;;
71916;SDS011;59793;46.506;6.674;2023-04-24T02:57:33;0.70;;;0.50;;
71916;SDS011;59793;46.506;6.674;2023-04-24T02:59:59;0.90;;;0.60;;
71916;SDS011;59793;46.506;6.674;2023-04-24T03:02:25;1.83;;;0.80;;
71916;SDS011;59793;46.506;6.674;2023-04-24T03:04:50;1.10;;;0.53;;
71916;SDS011;59793;46.506;6.674;2023-04-24T03:07:16;1.52;;;0.50;;
71916;SDS011;59793;46.506;6.674;2023-04-24T03:09:41;2.10;;;0.63;;
71916;SDS011;59793;46.506;6.674;2023-04-24T03:12:07;1.30;;;0.70;;
71916;SDS011;59793;46.506;6.674;2023-04-24T03:14:32;2.60;;;0.80;;
71916;SDS011;59793;46.506;6.674;2023-04-24T03:16:58;3.00;;;0.93;;
71916;SDS011;59793;46.506;6.674;2023-04-24T03:19:23;1.98;;;0.60;;
71916;SDS011;59793;46.506;6.674;2023-04-24T03:21:49;2.57;;;0.67;;
71916;SDS011;59793;46.506;6.674;2023-04-24T03:24:15;2.43;;;0.50;;
71916;SDS011;59793;46.506;6.674;2023-04-24T03:26:40;2.53;;;0.50;;
71916;SDS011;59793;46.506;6.674;2023-04-24T03:29:05;3.93;;;1.27;;
71916;SDS011;59793;46.506;6.674;2023-04-24T03:31:31;4.23;;;1.10;;
71916;SDS011;59793;46.506;6.674;2023-04-24T03:33:56;1.90;;;1.07;;
71916;SDS011;59793;46.506;6.674;2023-04-24T03:36:21;3.37;;;0.80;;
71916;SDS011;59793;46.506;6.674;2023-04-24T03:38:47;3.43;;;0.70;;
71916;SDS011;59793;46.506;6.674;2023-04-24T03:41:12;4.43;;;1.00;;
71916;SDS011;59793;46.506;6.674;2023-04-24T03:43:37;3.72;;;1.33;;
71916;SDS011;59793;46.506;6.674;2023-04-24T03:46:04;1.77;;;0.90;;
71916;SDS011;59793;46.506;6.674;2023-04-24T03:48:29;1.65;;;0.70;;
71916;SDS011;59793;46.506;6.674;2023-04-24T03:50:55;2.75;;;0.90;;
71916;SDS011;59793;46.506;6.674;2023-04-24T03:53:20;1.43;;;1.00;;
71916;SDS011;59793;46.506;6.674;2023-04-24T03:55:45;1.10;;;0.98;;
71916;SDS011;59793;46.506;6.674;2023-04-24T03:58:11;2.25;;;1.20;;
71916;SDS011;59793;46.506;6.674;2023-04-24T04:00:38;3.40;;;1.17;;
71916;SDS011;59793;46.506;6.674;2023-04-24T04:03:05;1.98;;;0.90;;
71916;SDS011;59793;46.506;6.674;2023-04-24T04:05:30;2.70;;;1.23;;
71916;SDS011;59793;46.506;6.674;2023-04-24T04:07:56;3.50;;;1.50;;
71916;SDS011;59793;46.506;6.674;2023-04-24T04:10:21;2.57;;;0.90;;
71916;SDS011;59793;46.506;6.674;2023-04-24T04:12:46;3.35;;;1.38;;
71916;SDS011;59793;46.506;6.674;2023-04-24T04:15:12;3.67;;;1.40;;
71916;SDS011;59793;46.506;6.674;2023-04-24T04:17:37;1.42;;;1.00;;
71916;SDS011;59793;46.506;6.674;2023-04-24T04:20:03;1.85;;;0.80;;
71916;SDS011;59793;46.506;6.674;2023-04-24T04:22:33;2.58;;;1.17;;
71916;SDS011;59793;46.506;6.674;2023-04-24T04:24:59;1.77;;;1.05;;
71916;SDS011;59793;46.506;6.674;2023-04-24T04:27:24;1.48;;;0.90;;
71916;SDS011;59793;46.506;6.674;2023-04-24T04:29:50;2.17;;;1.30;;
71916;SDS011;59793;46.506;6.674;2023-04-24T04:32:16;1.10;;;0.93;;
71916;SDS011;59793;46.506;6.674;2023-04-24T04:34:41;5.13;;;1.30;;
71916;SDS011;59793;46.506;6.674;2023-04-24T04:37:07;2.72;;;1.30;;
71916;SDS011;59793;46.506;6.674;2023-04-24T04:39:33;2.90;;;1.50;;
71916;SDS011;59793;46.506;6.674;2023-04-24T04:41:59;2.83;;;1.23;;
71916;SDS011;59793;46.506;6.674;2023-04-24T04:44:25;3.03;;;1.00;;
71916;SDS011;59793;46.506;6.674;2023-04-24T04:46:52;4.88;;;1.60;;
71916;SDS011;59793;46.506;6.674;2023-04-24T04:49:21;4.35;;;1.55;;
71916;SDS011;59793;46.506;6.674;2023-04-24T04:51:48;3.78;;;1.35;;
71916;SDS011;59793;46.506;6.674;2023-04-24T04:54:14;2.30;;;1.20;;
71916;SDS011;59793;46.506;6.674;2023-04-24T04:56:40;2.25;;;1.50;;
71916;SDS011;59793;46.506;6.674;2023-04-24T04:59:06;4.20;;;1.57;;
71916;SDS011;59793;46.506;6.674;2023-04-24T05:01:31;3.87;;;1.10;;
71916;SDS011;59793;46.506;6.674;2023-04-24T05:03:57;2.77;;;1.30;;
71916;SDS011;59793;46.506;6.674;2023-04-24T05:06:22;4.50;;;1.75;;
71916;SDS011;59793;46.506;6.674;2023-04-24T05:08:47;2.65;;;1.40;;
71916;SDS011;59793;46.506;6.674;2023-04-24T05:11:13;3.37;;;1.67;;
71916;SDS011;59793;46.506;6.674;2023-04-24T05:13:39;5.63;;;1.40;;
71916;SDS011;59793;46.506;6.674;2023-04-24T05:16:05;3.93;;;1.33;;
71916;SDS011;59793;46.506;6.674;2023-04-24T05:18:30;2.97;;;0.93;;
71916;SDS011;59793;46.506;6.674;2023-04-24T05:20:56;3.42;;;1.27;;
71916;SDS011;59793;46.506;6.674;2023-04-24T05:23:21;2.47;;;0.88;;
71916;SDS011;59793;46.506;6.674;2023-04-24T05:25:46;4.03;;;1.50;;
71916;SDS011;59793;46.506;6.674;2023-04-24T05:28:12;3.23;;;1.57;;
71916;SDS011;59793;46.506;6.674;2023-04-24T05:30:37;4.32;;;1.75;;
71916;SDS011;59793;46.506;6.674;2023-04-24T05:33:02;5.75;;;1.08;;
71916;SDS011;59793;46.506;6.674;2023-04-24T05:35:28;5.60;;;1.93;;
71916;SDS011;59793;46.506;6.674;2023-04-24T05:37:53;7.10;;;1.80;;
71916;SDS011;59793;46.506;6.674;2023-04-24T05:40:19;4.88;;;1.80;;
71916;SDS011;59793;46.506;6.674;2023-04-24T05:42:44;3.92;;;1.58;;
71916;SDS011;59793;46.506;6.674;2023-04-24T05:45:12;3.58;;;1.50;;
71916;SDS011;59793;46.506;6.674;2023-04-24T05:47:41;4.63;;;1.60;;
71916;SDS011;59793;46.506;6.674;2023-04-24T05:50:09;4.47;;;1.55;;
71916;SDS011;59793;46.506;6.674;2023-04-24T05:52:34;4.88;;;1.52;;
71916;SDS011;59793;46.506;6.674;2023-04-24T05:55:00;4.22;;;1.55;;
71916;SDS011;59793;46.506;6.674;2023-04-24T05:57:25;6.33;;;1.80;;
71916;SDS011;59793;46.506;6.674;2023-04-24T05:59:51;5.93;;;1.63;;
71916;SDS011;59793;46.506;6.674;2023-04-24T06:02:16;4.23;;;1.53;;
71916;SDS011;59793;46.506;6.674;2023-04-24T06:04:42;1.92;;;0.95;;
71916;SDS011;59793;46.506;6.674;2023-04-24T06:07:09;1.88;;;0.93;;
71916;SDS011;59793;46.506;6.674;2023-04-24T06:09:35;2.08;;;1.05;;
71916;SDS011;59793;46.506;6.674;2023-04-24T06:12:01;3.60;;;1.17;;
71916;SDS011;59793;46.506;6.674;2023-04-24T06:14:27;3.50;;;1.15;;
71916;SDS011;59793;46.506;6.674;2023-04-24T06:16:53;4.32;;;1.80;;
71916;SDS011;59793;46.506;6.674;2023-04-24T06:19:18;4.25;;;1.77;;
71916;SDS011;59793;46.506;6.674;2023-04-24T06:21:43;7.70;;;1.50;;
71916;SDS011;59793;46.506;6.674;2023-04-24T06:24:09;5.73;;;1.90;;
71916;SDS011;59793;46.506;6.674;2023-04-24T06:26:35;4.90;;;1.63;;
71916;SDS011;59793;46.506;6.674;2023-04-24T06:29:00;10.88;;;2.50;;
71916;SDS011;59793;46.506;6.674;2023-04-24T06:31:26;6.10;;;2.67;;
71916;SDS011;59793;46.506;6.674;2023-04-24T06:33:51;6.28;;;1.85;;
71916;SDS011;59793;46.506;6.674;2023-04-24T06:36:16;6.47;;;2.50;;
71916;SDS011;59793;46.506;6.674;2023-04-24T06:38:42;3.80;;;1.70;;
71916;SDS011;59793;46.506;6.674;2023-04-24T06:41:07;1.42;;;1.33;;
71916;SDS011;59793;46.506;6.674;2023-04-24T06:43:33;4.50;;;2.03;;
71916;SDS011;59793;46.506;6.674;2023-04-24T06:45:58;3.53;;;1.30;;
71916;SDS011;59793;46.506;6.674;2023-04-24T06:48:25;3.63;;;1.65;;
71916;SDS011;59793;46.506;6.674;2023-04-24T06:50:51;6.15;;;1.83;;
71916;SDS011;59793;46.506;6.674;2023-04-24T06:53:17;8.27;;;1.73;;
71916;SDS011;59793;46.506;6.674;2023-04-24T06:55:42;6.60;;;2.47;;
71916;SDS011;59793;46.506;6.674;2023-04-24T06:58:11;3.55;;;1.48;;
71916;SDS011;59793;46.506;6.674;2023-04-24T07:00:37;7.07;;;1.87;;
71916;SDS011;59793;46.506;6.674;2023-04-24T07:03:03;4.78;;;1.60;;
71916;SDS011;59793;46.506;6.674;2023-04-24T07:05:30;3.08;;;1.52;;
71916;SDS011;59793;46.506;6.674;2023-04-24T07:10:25;4.93;;;1.60;;
71916;SDS011;59793;46.506;6.674;2023-04-24T07:12:53;2.65;;;1.20;;
71916;SDS011;59793;46.506;6.674;2023-04-24T07:15:19;4.53;;;1.30;;
71916;SDS011;59793;46.506;6.674;2023-04-24T07:17:48;5.67;;;1.57;;
71916;SDS011;59793;46.506;6.674;2023-04-24T07:20:14;5.70;;;1.35;;
71916;SDS011;59793;46.506;6.674;2023-04-24T07:22:40;5.03;;;1.17;;
71916;SDS011;59793;46.506;6.674;2023-04-24T07:25:06;4.10;;;1.53;;
71916;SDS011;59793;46.506;6.674;2023-04-24T07:27:32;8.40;;;1.55;;
71916;SDS011;59793;46.506;6.674;2023-04-24T07:29:59;2.45;;;1.20;;
71916;SDS011;59793;46.506;6.674;2023-04-24T07:32:24;4.27;;;1.40;;
71916;SDS011;59793;46.506;6.674;2023-04-24T07:34:50;2.13;;;1.10;;
71916;SDS011;59793;46.506;6.674;2023-04-24T07:37:15;3.30;;;1.40;;
71916;SDS011;59793;46.506;6.674;2023-04-24T07:39:40;3.08;;;1.20;;
71916;SDS011;59793;46.506;6.674;2023-04-24T07:42:06;5.17;;;1.70;;
71916;SDS011;59793;46.506;6.674;2023-04-24T07:44:31;5.73;;;1.37;;
71916;SDS011;59793;46.506;6.674;2023-04-24T07:46:57;4.23;;;1.60;;
71916;SDS011;59793;46.506;6.674;2023-04-24T07:49:22;2.37;;;1.33;;
71916;SDS011;59793;46.506;6.674;2023-04-24T07:51:48;4.30;;;1.70;;
71916;SDS011;59793;46.506;6.674;2023-04-24T07:54:14;5.88;;;1.67;;
71916;SDS011;59793;46.506;6.674;2023-04-24T07:56:40;6.77;;;1.80;;
71916;SDS011;59793;46.506;6.674;2023-04-24T07:59:07;4.03;;;1.58;;
71916;SDS011;59793;46.506;6.674;2023-04-24T08:04:02;5.35;;;1.48;;
71916;SDS011;59793;46.506;6.674;2023-04-24T08:06:28;5.45;;;1.60;;
71916;SDS011;59793;46.506;6.674;2023-04-24T08:08:58;5.28;;;1.55;;
71916;SDS011;59793;46.506;6.674;2023-04-24T08:11:24;6.97;;;2.63;;
71916;SDS011;59793;46.506;6.674;2023-04-24T08:13:50;4.73;;;1.70;;
71916;SDS011;59793;46.506;6.674;2023-04-24T08:16:16;11.70;;;2.40;;
71916;SDS011;59793;46.506;6.674;2023-04-24T08:18:41;6.70;;;1.77;;
71916;SDS011;59793;46.506;6.674;2023-04-24T08:21:06;4.10;;;1.73;;
71916;SDS011;59793;46.506;6.674;2023-04-24T08:23:32;3.17;;;1.40;;
71916;SDS011;59793;46.506;6.674;2023-04-24T08:25:57;5.15;;;1.67;;
71916;SDS011;59793;46.506;6.674;2023-04-24T08:28:23;3.97;;;1.38;;
71916;SDS011;59793;46.506;6.674;2023-04-24T08:30:48;4.50;;;1.63;;
71916;SDS011;59793;46.506;6.674;2023-04-24T08:33:19;3.55;;;1.50;;
71916;SDS011;59793;46.506;6.674;2023-04-24T08:35:45;3.13;;;1.23;;
71916;SDS011;59793;46.506;6.674;2023-04-24T08:38:10;4.77;;;1.60;;
71916;SDS011;59793;46.506;6.674;2023-04-24T08:40:36;3.73;;;1.50;;
71916;SDS011;59793;46.506;6.674;2023-04-24T08:43:01;3.35;;;1.50;;
71916;SDS011;59793;46.506;6.674;2023-04-24T08:45:28;2.33;;;1.15;;
71916;SDS011;59793;46.506;6.674;2023-04-24T08:47:54;2.10;;;1.90;;
71916;SDS011;59793;46.506;6.674;2023-04-24T08:50:20;3.20;;;1.42;;
71916;SDS011;59793;46.506;6.674;2023-04-24T08:52:48;3.30;;;1.33;;
71916;SDS011;59793;46.506;6.674;2023-04-24T08:55:15;3.20;;;1.40;;
71916;SDS011;59793;46.506;6.674;2023-04-24T08:57:43;5.70;;;1.83;;
71916;SDS011;59793;46.506;6.674;2023-04-24T09:00:10;6.00;;;2.28;;
71916;SDS011;59793;46.506;6.674;2023-04-24T09:02:36;3.92;;;1.80;;
71916;SDS011;59793;46.506;6.674;2023-04-24T09:05:04;3.83;;;1.73;;
71916;SDS011;59793;46.506;6.674;2023-04-24T09:07:31;5.65;;;1.35;;
71916;SDS011;59793;46.506;6.674;2023-04-24T09:10:01;3.00;;;1.45;;
71916;SDS011;59793;46.506;6.674;2023-04-24T09:12:27;3.25;;;1.17;;
71916;SDS011;59793;46.506;6.674;2023-04-24T09:14:53;5.10;;;1.30;;
71916;SDS011;59793;46.506;6.674;2023-04-24T09:19:47;3.20;;;1.00;;
71916;SDS011;59793;46.506;6.674;2023-04-24T09:22:13;7.70;;;1.63;;
71916;SDS011;59793;46.506;6.674;2023-04-24T09:24:39;2.50;;;1.00;;
71916;SDS011;59793;46.506;6.674;2023-04-24T09:27:05;4.63;;;1.48;;
71916;SDS011;59793;46.506;6.674;2023-04-24T09:29:31;3.50;;;1.33;;
71916;SDS011;59793;46.506;6.674;2023-04-24T09:31:57;2.58;;;1.40;;
71916;SDS011;59793;46.506;6.674;2023-04-24T09:34:25;9.63;;;1.48;;
71916;SDS011;59793;46.506;6.674;2023-04-24T09:36:52;5.72;;;1.67;;
71916;SDS011;59793;46.506;6.674;2023-04-24T09:39:18;4.35;;;1.30;;
71916;SDS011;59793;46.506;6.674;2023-04-24T09:44:29;5.80;;;1.60;;
71916;SDS011;59793;46.506;6.674;2023-04-24T09:46:59;6.68;;;1.55;;
71916;SDS011;59793;46.506;6.674;2023-04-24T09:49:29;2.33;;;1.27;;
71916;SDS011;59793;46.506;6.674;2023-04-24T09:52:05;3.78;;;1.23;;
71916;SDS011;59793;46.506;6.674;2023-04-24T09:54:31;3.47;;;1.67;;
71916;SDS011;59793;46.506;6.674;2023-04-24T09:56:58;4.05;;;1.45;;
71916;SDS011;59793;46.506;6.674;2023-04-24T10:01:50;3.83;;;1.63;;
71916;SDS011;59793;46.506;6.674;2023-04-24T10:04:19;7.50;;;1.90;;
71916;SDS011;59793;46.506;6.674;2023-04-24T10:06:45;2.50;;;1.38;;
71916;SDS011;59793;46.506;6.674;2023-04-24T10:09:12;3.05;;;1.40;;
71916;SDS011;59793;46.506;6.674;2023-04-24T10:11:41;3.08;;;1.42;;
71916;SDS011;59793;46.506;6.674;2023-04-24T10:14:09;3.50;;;1.75;;
71916;SDS011;59793;46.506;6.674;2023-04-24T10:16:35;3.70;;;1.50;;
71916;SDS011;59793;46.506;6.674;2023-04-24T10:19:02;2.20;;;1.23;;
71916;SDS011;59793;46.506;6.674;2023-04-24T10:21:28;4.50;;;1.38;;
71916;SDS011;59793;46.506;6.674;2023-04-24T10:23:54;4.17;;;1.30;;
71916;SDS011;59793;46.506;6.674;2023-04-24T10:26:20;2.40;;;1.02;;
71916;SDS011;59793;46.506;6.674;2023-04-24T10:28:47;3.88;;;1.30;;
71916;SDS011;59793;46.506;6.674;2023-04-24T10:31:13;3.33;;;1.23;;
71916;SDS011;59793;46.506;6.674;2023-04-24T10:33:40;5.88;;;1.83;;
71916;SDS011;59793;46.506;6.674;2023-04-24T10:36:07;5.28;;;1.75;;
71916;SDS011;59793;46.506;6.674;2023-04-24T10:38:34;3.08;;;1.27;;
71916;SDS011;59793;46.506;6.674;2023-04-24T10:41:08;4.55;;;1.20;;
71916;SDS011;59793;46.506;6.674;2023-04-24T10:43:34;2.60;;;1.08;;
71916;SDS011;59793;46.506;6.674;2023-04-24T10:46:04;6.50;;;1.27;;
71916;SDS011;59793;46.506;6.674;2023-04-24T10:48:31;4.15;;;1.02;;
71916;SDS011;59793;46.506;6.674;2023-04-24T10:50:57;4.30;;;1.40;;
71916;SDS011;59793;46.506;6.674;2023-04-24T10:53:24;3.40;;;1.63;;
71916;SDS011;59793;46.506;6.674;2023-04-24T10:56:05;4.20;;;1.63;;
71916;SDS011;59793;46.506;6.674;2023-04-24T10:58:50;4.05;;;1.50;;
71916;SDS011;59793;46.506;6.674;2023-04-24T11:01:28;4.43;;;1.65;;
71916;SDS011;59793;46.506;6.674;2023-04-24T11:03:58;2.92;;;1.08;;
71916;SDS011;59793;46.506;6.674;2023-04-24T11:06:43;2.35;;;1.10;;
71916;SDS011;59793;46.506;6.674;2023-04-24T11:09:08;4.63;;;1.80;;
71916;SDS011;59793;46.506;6.674;2023-04-24T11:11:37;4.10;;;1.20;;
71916;SDS011;59793;46.506;6.674;2023-04-24T11:14:09;1.55;;;1.05;;
71916;SDS011;59793;46.506;6.674;2023-04-24T11:16:44;3.73;;;1.20;;
71916;SDS011;59793;46.506;6.674;2023-04-24T11:32:13;5.07;;;1.05;;
71916;SDS011;59793;46.506;6.674;2023-04-24T11:34:44;2.03;;;1.13;;
71916;SDS011;59793;46.506;6.674;2023-04-24T11:37:11;4.20;;;1.20;;
71916;SDS011;59793;46.506;6.674;2023-04-24T11:39:37;6.28;;;1.33;;
71916;SDS011;59793;46.506;6.674;2023-04-24T11:42:03;3.10;;;1.40;;
71916;SDS011;59793;46.506;6.674;2023-04-24T11:44:31;5.40;;;1.42;;
71916;SDS011;59793;46.506;6.674;2023-04-24T11:46:56;3.43;;;0.97;;
71916;SDS011;59793;46.506;6.674;2023-04-24T11:49:22;8.50;;;2.77;;
71916;SDS011;59793;46.506;6.674;2023-04-24T11:51:47;9.07;;;2.17;;
71916;SDS011;59793;46.506;6.674;2023-04-24T11:54:13;5.27;;;1.13;;
71916;SDS011;59793;46.506;6.674;2023-04-24T11:56:38;11.33;;;1.90;;
71916;SDS011;59793;46.506;6.674;2023-04-24T11:59:04;12.27;;;1.93;;
71916;SDS011;59793;46.506;6.674;2023-04-24T12:01:29;3.93;;;1.63;;
71916;SDS011;59793;46.506;6.674;2023-04-24T12:03:59;7.40;;;1.80;;
71916;SDS011;59793;46.506;6.674;2023-04-24T12:06:25;4.85;;;1.10;;
71916;SDS011;59793;46.506;6.674;2023-04-24T12:08:50;1.97;;;1.10;;
71916;SDS011;59793;46.506;6.674;2023-04-24T12:11:19;3.05;;;1.30;;
71916;SDS011;59793;46.506;6.674;2023-04-24T12:13:45;6.23;;;1.20;;
71916;SDS011;59793;46.506;6.674;2023-04-24T12:16:10;6.47;;;1.50;;
71916;SDS011;59793;46.506;6.674;2023-04-24T12:18:41;3.20;;;1.10;;
71916;SDS011;59793;46.506;6.674;2023-04-24T12:21:17;2.53;;;1.38;;
71916;SDS011;59793;46.506;6.674;2023-04-24T12:23:44;3.83;;;1.17;;
71916;SDS011;59793;46.506;6.674;2023-04-24T12:26:19;3.55;;;1.30;;
71916;SDS011;59793;46.506;6.674;2023-04-24T12:28:46;2.85;;;1.17;;
71916;SDS011;59793;46.506;6.674;2023-04-24T12:31:14;2.80;;;1.17;;
71916;SDS011;59793;46.506;6.674;2023-04-24T12:33:41;2.47;;;1.20;;
71916;SDS011;59793;46.506;6.674;2023-04-24T12:36:09;4.55;;;1.50;;
71916;SDS011;59793;46.506;6.674;2023-04-24T12:38:35;4.85;;;1.30;;
71916;SDS011;59793;46.506;6.674;2023-04-24T12:41:06;3.40;;;1.10;;
71916;SDS011;59793;46.506;6.674;2023-04-24T12:43:31;2.70;;;1.23;;
71916;SDS011;59793;46.506;6.674;2023-04-24T12:45:57;2.07;;;0.80;;
71916;SDS011;59793;46.506;6.674;2023-04-24T12:48:24;8.13;;;1.15;;
71916;SDS011;59793;46.506;6.674;2023-04-24T12:50:52;4.07;;;1.05;;
71916;SDS011;59793;46.506;6.674;2023-04-24T12:53:18;3.70;;;1.37;;
71916;SDS011;59793;46.506;6.674;2023-04-24T12:55:43;5.50;;;1.07;;
71916;SDS011;59793;46.506;6.674;2023-04-24T12:58:10;5.93;;;1.20;;
71916;SDS011;59793;46.506;6.674;2023-04-24T13:00:35;3.37;;;1.20;;
71916;SDS011;59793;46.506;6.674;2023-04-24T13:03:01;3.77;;;1.40;;
71916;SDS011;59793;46.506;6.674;2023-04-24T13:05:27;1.97;;;0.97;;
71916;SDS011;59793;46.506;6.674;2023-04-24T13:07:52;3.33;;;1.00;;
71916;SDS011;59793;46.506;6.674;2023-04-24T13:10:18;1.90;;;0.80;;
71916;SDS011;59793;46.506;6.674;2023-04-24T13:12:44;3.97;;;1.50;;
71916;SDS011;59793;46.506;6.674;2023-04-24T13:15:11;2.10;;;1.10;;
71916;SDS011;59793;46.506;6.674;2023-04-24T13:17:36;6.47;;;1.10;;
71916;SDS011;59793;46.506;6.674;2023-04-24T13:20:02;2.73;;;1.10;;
71916;SDS011;59793;46.506;6.674;2023-04-24T13:22:28;3.25;;;1.08;;
71916;SDS011;59793;46.506;6.674;2023-04-24T13:24:53;2.43;;;1.10;;
71916;SDS011;59793;46.506;6.674;2023-04-24T13:27:19;4.43;;;1.07;;
71916;SDS011;59793;46.506;6.674;2023-04-24T13:29:45;3.10;;;1.23;;
71916;SDS011;59793;46.506;6.674;2023-04-24T13:32:11;1.88;;;1.00;;
71916;SDS011;59793;46.506;6.674;2023-04-24T13:34:36;2.73;;;1.20;;
71916;SDS011;59793;46.506;6.674;2023-04-24T13:37:02;2.43;;;1.00;;
71916;SDS011;59793;46.506;6.674;2023-04-24T13:39:28;2.80;;;0.90;;
71916;SDS011;59793;46.506;6.674;2023-04-24T13:41:54;4.00;;;1.10;;
71916;SDS011;59793;46.506;6.674;2023-04-24T13:44:20;3.03;;;1.00;;
71916;SDS011;59793;46.506;6.674;2023-04-24T13:46:47;3.63;;;1.33;;
71916;SDS011;59793;46.506;6.674;2023-04-24T13:49:14;2.78;;;0.98;;
71916;SDS011;59793;46.506;6.674;2023-04-24T13:51:40;4.50;;;1.73;;
71916;SDS011;59793;46.506;6.674;2023-04-24T13:54:07;3.72;;;1.20;;
71916;SDS011;59793;46.506;6.674;2023-04-24T13:56:33;2.13;;;1.00;;
71916;SDS011;59793;46.506;6.674;2023-04-24T13:58:58;7.50;;;1.10;;
71916;SDS011;59793;46.506;6.674;2023-04-24T14:01:23;5.70;;;1.10;;
71916;SDS011;59793;46.506;6.674;2023-04-24T14:03:53;3.63;;;1.37;;
71916;SDS011;59793;46.506;6.674;2023-04-24T14:06:19;1.25;;;0.88;;
71916;SDS011;59793;46.506;6.674;2023-04-24T14:08:45;4.05;;;1.20;;
71916;SDS011;59793;46.506;6.674;2023-04-24T14:11:11;2.60;;;1.10;;
71916;SDS011;59793;46.506;6.674;2023-04-24T14:13:37;3.97;;;1.27;;
71916;SDS011;59793;46.506;6.674;2023-04-24T14:16:03;4.57;;;1.30;;
71916;SDS011;59793;46.506;6.674;2023-04-24T14:18:29;3.58;;;1.02;;
71916;SDS011;59793;46.506;6.674;2023-04-24T14:20:55;4.07;;;1.00;;
71916;SDS011;59793;46.506;6.674;2023-04-24T14:23:20;2.23;;;0.80;;
71916;SDS011;59793;46.506;6.674;2023-04-24T14:25:45;3.83;;;1.03;;
71916;SDS011;59793;46.506;6.674;2023-04-24T14:28:13;3.42;;;1.00;;
71916;SDS011;59793;46.506;6.674;2023-04-24T14:30:38;7.90;;;1.47;;
71916;SDS011;59793;46.506;6.674;2023-04-24T14:35:30;5.28;;;1.15;;
71916;SDS011;59793;46.506;6.674;2023-04-24T14:38:00;3.67;;;0.82;;
71916;SDS011;59793;46.506;6.674;2023-04-24T14:40:25;4.33;;;1.30;;
71916;SDS011;59793;46.506;6.674;2023-04-24T14:42:51;2.33;;;1.40;;
71916;SDS011;59793;46.506;6.674;2023-04-24T14:45:16;3.53;;;1.13;;
71916;SDS011;59793;46.506;6.674;2023-04-24T14:47:42;2.73;;;0.97;;
71916;SDS011;59793;46.506;6.674;2023-04-24T14:50:07;6.27;;;1.00;;
71916;SDS011;59793;46.506;6.674;2023-04-24T14:52:33;5.50;;;0.97;;
71916;SDS011;59793;46.506;6.674;2023-04-24T14:54:59;1.00;;;0.70;;
71916;SDS011;59793;46.506;6.674;2023-04-24T14:57:24;2.97;;;1.07;;
71916;SDS011;59793;46.506;6.674;2023-04-24T14:59:49;6.63;;;1.30;;
71916;SDS011;59793;46.506;6.674;2023-04-24T15:02:15;3.38;;;1.35;;
71916;SDS011;59793;46.506;6.674;2023-04-24T15:04:41;3.77;;;0.73;;
71916;SDS011;59793;46.506;6.674;2023-04-24T15:07:06;2.07;;;1.03;;
71916;SDS011;59793;46.506;6.674;2023-04-24T15:09:32;1.87;;;0.90;;
71916;SDS011;59793;46.506;6.674;2023-04-24T15:11:57;2.97;;;1.10;;